Time;durP1;ratioP1;P1;durP2;ratioP2;P2;SDS_P1;SDS_P2;PMS_P1;PMS_P2;Temp;Humidity;BMP_temperature;BMP_pressure;BME280_temperature;BME280_humidity;BME280_pressure;Samples;Min_cycle;Max_cycle;Signal;HPM_P1;HPM_P2
2023/07/10 00:00:23;;;;;;;20.10;13.27;;;;;;;-145.94;77.50;76217.19;5097084;28;20227;-70
2023/07/10 00:02:51;;;;;;;18.30;12.97;;;;;;;-145.94;77.75;76209.03;5078902;28;20609;-70
2023/07/10 00:05:21;;;;;;;12.93;11.63;;;;;;;-145.94;77.66;76215.13;5096977;28;20192;-70
2023/07/10 00:07:47;;;;;;;14.73;13.33;;;;;;;-145.94;77.61;76209.03;5097132;28;20194;-70
2023/07/10 00:10:16;;;;;;;14.47;13.00;;;;;;;-145.94;77.43;76204.94;5097161;28;20190;-70
2023/07/10 00:12:45;;;;;;;19.07;13.53;;;;;;;-145.94;77.13;76207.00;5096760;28;20555;-70
2023/07/10 00:15:18;;;;;;;14.73;12.93;;;;;;;-145.94;77.19;76211.06;5096987;28;20255;-70
2023/07/10 00:17:50;;;;;;;14.87;13.53;;;;;;;-145.94;77.21;76213.09;5097053;28;20196;-70
2023/07/10 00:20:19;;;;;;;16.60;13.33;;;;;;;-145.94;77.31;76215.13;5096968;28;20174;-70
2023/07/10 00:22:46;;;;;;;17.07;14.37;;;;;;;-145.94;77.27;76223.28;5096831;28;20194;-70
2023/07/10 00:25:15;;;;;;;13.20;11.30;;;;;;;-145.94;77.43;76225.34;5096848;28;20235;-70
2023/07/10 00:27:43;;;;;;;13.90;12.53;;;;;;;-145.94;77.45;76223.28;5096789;28;20597;-70
2023/07/10 00:30:18;;;;;;;12.23;10.93;;;;;;;-145.94;77.45;76223.28;5096366;28;20251;-70
2023/07/10 00:32:45;;;;;;;14.23;12.87;;;;;;;-145.94;77.69;76229.41;5096676;28;20205;-71
2023/07/10 00:35:16;;;;;;;13.10;11.67;;;;;;;-145.94;77.12;76233.50;5095074;28;20205;-71
2023/07/10 00:38:01;;;;;;;17.00;11.60;;;;;;;-145.94;77.63;76243.69;5096635;28;20260;-71
2023/07/10 00:40:31;;;;;;;12.20;11.00;;;;;;;-145.94;77.39;76245.72;5078662;28;20548;-71
2023/07/10 00:43:04;;;;;;;15.07;10.43;;;;;;;-145.94;77.63;76237.56;5078067;28;20655;-71
2023/07/10 00:45:30;;;;;;;12.60;11.83;;;;;;;-145.94;77.15;76247.75;5096232;28;20178;-71
2023/07/10 00:48:09;;;;;;;12.57;10.30;;;;;;;-145.94;77.53;76243.69;5096703;28;20260;-71
2023/07/10 00:50:46;;;;;;;12.70;11.57;;;;;;;-145.94;77.39;76243.69;5077943;28;20189;-71
2023/07/10 00:53:21;;;;;;;10.73;9.90;;;;;;;-145.94;77.27;76243.69;5078077;28;20237;-71
2023/07/10 00:55:49;;;;;;;13.40;11.40;;;;;;;-145.94;77.31;76247.75;5096052;28;20170;-71
2023/07/10 00:58:38;;;;;;;12.87;11.80;;;;;;;-145.94;77.32;76247.75;5077845;28;20182;-70
2023/07/10 01:01:10;;;;;;;17.40;11.53;;;;;;;-145.94;77.34;76257.97;5096118;28;20206;-70
2023/07/10 01:03:39;;;;;;;13.77;12.73;;;;;;;-145.94;77.66;76268.16;5077322;28;20190;-70
2023/07/10 01:06:11;;;;;;;13.80;12.03;;;;;;;-145.94;77.58;76257.97;5094484;28;20197;-70
2023/07/10 01:08:42;;;;;;;13.80;12.53;;;;;;;-145.94;77.70;76255.91;5077679;28;20636;-70
2023/07/10 01:11:09;;;;;;;13.37;12.47;;;;;;;-145.94;77.54;76255.91;5077510;28;20576;-70
2023/07/10 01:13:41;;;;;;;15.50;13.03;;;;;;;-145.94;77.82;76270.19;5095566;28;20718;-70
2023/07/10 01:16:08;;;;;;;14.67;12.07;;;;;;;-145.94;77.45;76270.19;5078114;28;20178;-70
2023/07/10 01:18:36;;;;;;;13.80;12.37;;;;;;;-145.94;77.76;76278.34;5077403;28;20197;-70
2023/07/10 01:21:19;;;;;;;16.67;12.23;;;;;;;-145.94;77.80;76272.22;5077358;28;20629;-70
2023/07/10 01:23:46;;;;;;;12.63;11.47;;;;;;;-145.94;77.88;76280.38;5096028;28;20184;-70
2023/07/10 01:26:12;;;;;;;26.37;11.80;;;;;;;-145.94;77.61;76280.38;5077316;28;20194;-70
2023/07/10 01:28:39;;;;;;;13.13;11.67;;;;;;;-145.94;77.69;76284.47;5077280;28;20239;-70
2023/07/10 01:31:10;;;;;;;17.60;11.67;;;;;;;-145.94;77.32;76284.47;5077214;28;20221;-70
2023/07/10 01:33:42;;;;;;;13.07;11.60;;;;;;;-145.94;77.37;76276.31;5095482;28;20178;-70
2023/07/10 01:36:12;;;;;;;12.63;11.53;;;;;;;-145.94;77.27;76282.44;5095557;28;20175;-70
2023/07/10 01:38:44;;;;;;;13.33;12.10;;;;;;;-145.94;77.43;76284.47;5077030;28;20606;-70
2023/07/10 01:41:36;;;;;;;12.60;11.50;;;;;;;-145.94;77.55;76280.38;5095382;28;20267;-70
2023/07/10 01:44:19;;;;;;;15.10;11.30;;;;;;;-145.94;77.77;76284.47;5093839;28;20251;-70
2023/07/10 01:46:45;;;;;;;14.90;11.17;;;;;;;-145.94;77.66;76280.38;5093797;28;20235;-70
2023/07/10 01:49:12;;;;;;;13.00;11.83;;;;;;;-145.94;77.48;76282.44;5094973;28;20235;-70
2023/07/10 01:51:39;;;;;;;21.83;11.77;;;;;;;-145.94;77.64;76280.38;5093634;28;20210;-70
2023/07/10 01:54:05;;;;;;;22.97;12.33;;;;;;;-145.94;77.65;76284.47;5076669;28;20274;-70
2023/07/10 01:56:32;;;;;;;14.20;13.20;;;;;;;-145.94;77.74;76282.44;5095391;28;20196;-70
2023/07/10 01:58:59;;;;;;;17.60;11.53;;;;;;;-145.94;77.37;76286.50;5076654;28;20239;-70
2023/07/10 02:01:25;;;;;;;17.17;11.53;;;;;;;-145.94;77.21;76278.34;5093417;28;20209;-70
2023/07/10 02:03:52;;;;;;;12.50;11.47;;;;;;;-145.94;77.32;76282.44;5094661;28;20213;-70
2023/07/10 02:06:19;;;;;;;12.53;11.63;;;;;;;-145.94;77.48;76290.59;5093406;28;20640;-69
2023/07/10 02:08:45;;;;;;;12.97;11.97;;;;;;;-145.94;77.26;76284.47;5094828;28;20652;-69
2023/07/10 02:11:12;;;;;;;14.97;13.10;;;;;;;-145.94;77.31;76290.59;5094458;28;20213;-70
2023/07/10 02:13:38;;;;;;;13.73;11.73;;;;;;;-145.94;77.26;76282.44;5095024;28;20250;-70
2023/07/10 02:16:09;;;;;;;11.50;10.70;;;;;;;-145.94;77.17;76284.47;5075495;28;20599;-70
2023/07/10 02:18:36;;;;;;;13.60;12.03;;;;;;;-145.94;77.09;76286.50;5093171;28;20190;-70
2023/07/10 02:21:02;;;;;;;13.13;12.00;;;;;;;-145.94;77.13;76288.53;5094860;28;20210;-70
2023/07/10 02:23:29;;;;;;;11.87;10.70;;;;;;;-145.94;77.23;76286.50;5076109;28;20656;-70
2023/07/10 02:25:56;;;;;;;11.87;11.00;;;;;;;-145.94;77.35;76286.50;5094243;28;20190;-70
2023/07/10 02:28:22;;;;;;;14.13;12.67;;;;;;;-145.94;77.17;76286.50;5094502;28;20216;-70
2023/07/10 02:30:49;;;;;;;15.93;13.23;;;;;;;-145.94;76.84;76286.50;5075862;28;20217;-71
2023/07/10 02:33:18;;;;;;;16.30;13.37;;;;;;;-145.94;76.61;76300.78;5094107;28;20194;-70
2023/07/10 02:35:46;;;;;;;15.10;13.80;;;;;;;-145.94;76.63;76313.00;5094545;28;20206;-70
2023/07/10 02:38:13;;;;;;;18.17;15.17;;;;;;;-145.94;76.82;76317.09;5094571;28;20190;-69
2023/07/10 02:40:41;;;;;;;18.07;14.93;;;;;;;-145.94;76.57;76315.03;5094209;28;20590;-70
2023/07/10 02:43:08;;;;;;;19.53;16.33;;;;;;;-145.94;76.52;76321.16;5094219;28;20578;-70
2023/07/10 02:45:35;;;;;;;21.33;15.90;;;;;;;-145.94;76.24;76321.16;5094196;28;20231;-70
2023/07/10 02:48:03;;;;;;;20.17;15.60;;;;;;;-145.94;76.22;76323.19;5075772;28;20201;-70
2023/07/10 02:50:31;;;;;;;20.53;16.50;;;;;;;-145.94;76.46;76325.25;5094312;28;20178;-70
2023/07/10 02:52:58;;;;;;;21.73;15.93;;;;;;;-145.94;76.76;76337.47;5093784;28;20246;-70
2023/07/10 02:55:24;;;;;;;27.73;16.40;;;;;;;-145.94;76.86;76341.56;5075507;28;20267;-69
2023/07/10 02:57:51;;;;;;;19.63;16.90;;;;;;;-145.94;76.90;76345.63;5094269;28;20577;-69
2023/07/10 03:00:17;;;;;;;22.90;16.60;;;;;;;-145.94;76.94;76339.50;5075540;28;20239;-69
2023/07/10 03:02:44;;;;;;;30.23;16.97;;;;;;;-145.94;76.93;76333.41;5075476;28;20214;-69
2023/07/10 03:05:10;;;;;;;16.90;15.10;;;;;;;-145.94;77.02;76341.56;5093634;28;20204;-69
2023/07/10 03:07:37;;;;;;;22.67;16.97;;;;;;;-145.94;77.01;76343.59;5093522;28;20177;-69
2023/07/10 03:10:04;;;;;;;18.77;15.73;;;;;;;-145.94;76.98;76345.63;5093579;28;20178;-70
2023/07/10 03:12:30;;;;;;;22.70;16.17;;;;;;;-145.94;77.00;76349.72;5093749;28;20205;-70
2023/07/10 03:14:57;;;;;;;25.53;16.97;;;;;;;-145.94;77.06;76368.06;5075290;28;20210;-69
2023/07/10 03:17:23;;;;;;;28.07;18.73;;;;;;;-145.94;77.31;76374.19;5076226;28;20197;-69
2023/07/10 03:19:50;;;;;;;23.77;17.03;;;;;;;-145.94;77.28;76376.22;5075376;28;20189;-69
2023/07/10 03:22:17;;;;;;;23.23;15.83;;;;;;;-145.94;77.21;76376.22;5075266;28;20210;-69
2023/07/10 03:24:43;;;;;;;19.63;16.97;;;;;;;-145.94;77.23;76370.09;5075333;28;20189;-69
2023/07/10 03:27:10;;;;;;;27.23;17.30;;;;;;;-145.94;77.00;76378.25;5093543;28;20188;-69
2023/07/10 03:29:36;;;;;;;22.77;17.10;;;;;;;-145.94;77.19;76376.22;5093317;28;20656;-70
2023/07/10 03:32:03;;;;;;;33.90;17.13;;;;;;;-145.94;77.16;76384.38;5093355;28;20792;-70
2023/07/10 03:34:29;;;;;;;27.03;18.20;;;;;;;-145.94;77.08;76386.41;5093234;28;20198;-70
2023/07/10 03:36:56;;;;;;;24.53;17.83;;;;;;;-145.94;76.85;76376.22;5093584;28;20245;-70
2023/07/10 03:39:22;;;;;;;24.33;17.00;;;;;;;-145.94;77.02;76368.06;5093528;28;20239;-69
2023/07/10 03:41:49;;;;;;;25.90;16.53;;;;;;;-145.94;76.91;76363.97;5093438;28;20687;-70
2023/07/10 03:44:15;;;;;;;23.23;17.13;;;;;;;-145.94;76.92;76355.81;5093760;28;20182;-69
2023/07/10 03:46:42;;;;;;;17.40;15.77;;;;;;;-145.94;77.09;76361.94;5093204;28;20227;-69
2023/07/10 03:49:08;;;;;;;19.77;16.10;;;;;;;-145.94;77.15;76366.03;5093150;28;20175;-69
2023/07/10 03:51:34;;;;;;;19.67;16.30;;;;;;;-145.94;77.23;76366.03;5093159;28;20217;-69
2023/07/10 03:54:01;;;;;;;21.67;17.40;;;;;;;-145.94;77.02;76361.94;5093369;28;20227;-69
2023/07/10 03:56:28;;;;;;;18.50;16.37;;;;;;;-145.94;76.98;76361.94;5092965;28;20252;-69
2023/07/10 03:58:54;;;;;;;24.20;17.33;;;;;;;-145.94;77.07;76355.81;5093060;28;20194;-69
2023/07/10 04:01:20;;;;;;;27.07;17.43;;;;;;;-145.94;76.97;76357.88;5093004;28;20206;-69
2023/07/10 04:03:47;;;;;;;28.23;17.00;;;;;;;-145.94;77.27;76366.03;5093296;28;20678;-69
2023/07/10 04:06:15;;;;;;;29.57;18.30;;;;;;;-145.94;77.02;76361.94;5093001;28;20174;-69
2023/07/10 04:08:44;;;;;;;29.97;18.80;;;;;;;-145.94;76.81;76370.09;5093013;28;20177;-69
2023/07/10 04:11:13;;;;;;;24.90;18.20;;;;;;;-145.94;76.94;76370.09;5093195;28;20213;-69
2023/07/10 04:13:40;;;;;;;22.40;17.97;;;;;;;-145.94;76.99;76363.97;5091670;28;20190;-69
2023/07/10 04:16:22;;;;;;;21.70;17.17;;;;;;;-145.94;77.17;76374.19;5093061;28;20205;-69
2023/07/10 04:18:51;;;;;;;26.53;17.40;;;;;;;-145.94;77.17;76372.13;5093170;28;20578;-69
2023/07/10 04:21:22;;;;;;;26.00;18.43;;;;;;;-145.94;77.11;76378.25;5092766;28;20209;-69
2023/07/10 04:23:49;;;;;;;29.00;18.00;;;;;;;-145.94;77.23;76392.53;5093489;28;20214;-69
2023/07/10 04:26:21;;;;;;;23.07;17.83;;;;;;;-145.94;77.26;76394.56;5093072;28;20174;-69
2023/07/10 04:28:50;;;;;;;37.97;18.83;;;;;;;-145.94;77.64;76392.53;5092773;28;20216;-69
2023/07/10 04:31:17;;;;;;;28.70;20.53;;;;;;;-145.94;77.84;76394.56;5092836;28;20222;-70
2023/07/10 04:33:45;;;;;;;27.47;17.73;;;;;;;-145.94;77.85;76408.84;5092638;28;20352;-69
2023/07/10 04:36:11;;;;;;;32.43;19.30;;;;;;;-145.94;77.92;76398.66;5093138;28;20202;-69
2023/07/10 04:38:38;;;;;;;26.53;18.73;;;;;;;-145.94;77.96;76396.59;5094661;28;20235;-69
2023/07/10 04:41:07;;;;;;;26.63;20.03;;;;;;;-145.94;77.95;76404.75;5096802;28;20213;-69
2023/07/10 04:43:34;;;;;;;24.60;17.27;;;;;;;-145.94;77.95;76400.69;5096554;28;20170;-69
2023/07/10 04:46:03;;;;;;;25.10;17.60;;;;;;;-145.94;78.10;76406.81;5096538;28;20181;-69
2023/07/10 04:48:31;;;;;;;29.10;18.63;;;;;;;-145.94;77.88;76412.91;5096157;28;20185;-69
2023/07/10 04:51:02;;;;;;;28.23;18.97;;;;;;;-145.94;77.97;76419.03;5096229;28;20205;-70
2023/07/10 04:53:31;;;;;;;24.77;18.03;;;;;;;-145.94;77.96;76425.16;5096344;28;20174;-69
2023/07/10 04:56:00;;;;;;;27.87;18.17;;;;;;;-145.94;77.97;76417.00;5096173;28;20201;-69
2023/07/10 04:58:30;;;;;;;25.17;17.80;;;;;;;-145.94;77.99;76421.06;5096243;28;20177;-69
2023/07/10 05:00:59;;;;;;;24.27;15.33;;;;;;;-145.94;77.49;76431.28;5096044;28;20205;-69
2023/07/10 05:03:26;;;;;;;19.93;13.77;;;;;;;-145.94;76.80;76443.50;5096105;28;20247;-70
2023/07/10 05:05:55;;;;;;;12.57;11.33;;;;;;;-145.94;75.92;76445.53;5095797;28;20525;-70
2023/07/10 05:08:22;;;;;;;12.93;11.63;;;;;;;-145.94;75.75;76441.47;5095797;28;20197;-70
2023/07/10 05:10:50;;;;;;;13.70;12.17;;;;;;;-145.94;75.61;76447.56;5095650;28;20210;-70
2023/07/10 05:13:18;;;;;;;12.77;10.67;;;;;;;-145.94;75.31;76453.69;5095925;28;20188;-70
2023/07/10 05:15:46;;;;;;;11.03;10.00;;;;;;;-145.94;75.01;76449.63;5095717;28;20202;-70
2023/07/10 05:18:13;;;;;;;11.53;10.80;;;;;;;-145.94;74.61;76453.69;5096029;28;20239;-70
2023/07/10 05:20:42;;;;;;;11.97;9.77;;;;;;;-145.94;74.24;76449.63;5096008;28;20231;-70
2023/07/10 05:23:09;;;;;;;10.30;9.63;;;;;;;-145.94;73.94;76451.66;5095435;28;20277;-70
2023/07/10 05:25:37;;;;;;;10.80;9.40;;;;;;;-145.94;74.27;76455.72;5095636;28;20197;-70
2023/07/10 05:28:04;;;;;;;10.27;9.60;;;;;;;-145.94;74.10;76455.72;5095364;28;20197;-70
2023/07/10 05:30:31;;;;;;;14.97;9.40;;;;;;;-145.94;74.18;76451.66;5095136;28;20243;-70
2023/07/10 05:32:57;;;;;;;12.00;11.00;;;;;;;-145.94;74.66;76445.53;5095779;28;20190;-70
2023/07/10 05:35:24;;;;;;;16.23;10.37;;;;;;;-145.94;74.67;76445.53;5095160;28;20210;-70
2023/07/10 05:37:50;;;;;;;11.90;10.90;;;;;;;-145.94;74.28;76441.47;5095184;28;20193;-70
2023/07/10 05:40:17;;;;;;;18.33;10.83;;;;;;;-145.94;73.89;76431.28;5095180;28;20190;-70
2023/07/10 05:42:43;;;;;;;10.73;10.03;;;;;;;-145.94;73.94;76437.38;5095089;28;20201;-70
2023/07/10 05:45:10;;;;;;;12.97;11.27;;;;;;;-145.94;73.77;76425.16;5095028;28;20189;-70
2023/07/10 05:47:36;;;;;;;14.13;11.73;;;;;;;-145.94;73.67;76429.22;5094989;28;20239;-70
2023/07/10 05:50:03;;;;;;;12.13;11.00;;;;;;;-145.94;73.68;76431.28;5093864;28;20277;-70
2023/07/10 05:52:29;;;;;;;13.80;11.33;;;;;;;-145.94;74.20;76429.22;5094905;28;20210;-70
2023/07/10 05:54:56;;;;;;;15.57;11.80;;;;;;;-145.94;74.26;76429.22;5094834;28;20197;-70
2023/07/10 05:57:22;;;;;;;15.77;13.00;;;;;;;-145.94;73.87;76431.28;5094800;28;20578;-70
2023/07/10 05:59:49;;;;;;;14.77;11.60;;;;;;;-145.94;73.77;76435.34;5095312;28;20182;-70
2023/07/10 06:02:15;;;;;;;13.03;12.10;;;;;;;-145.94;74.08;76437.38;5076478;28;20764;-70
2023/07/10 06:04:42;;;;;;;18.07;11.33;;;;;;;-145.94;73.78;76439.41;5094633;28;20221;-70
2023/07/10 06:07:08;;;;;;;17.23;12.17;;;;;;;-145.94;73.43;76435.34;5094643;28;20189;-70
2023/07/10 06:09:35;;;;;;;11.73;10.37;;;;;;;-145.94;72.49;76433.31;5095166;28;20228;-70
2023/07/10 06:12:01;;;;;;;13.53;10.37;;;;;;;-145.94;72.12;76431.28;5094455;28;20210;-70
2023/07/10 06:14:27;;;;;;;12.37;11.07;;;;;;;-145.94;72.38;76433.31;5094499;28;20663;-70
2023/07/10 06:16:54;;;;;;;10.67;9.97;;;;;;;-145.94;71.85;76443.50;5094683;28;20190;-70
2023/07/10 06:19:21;;;;;;;11.03;10.13;;;;;;;-145.94;71.86;76439.41;5094409;28;20186;-69
2023/07/10 06:21:47;;;;;;;9.67;9.03;;;;;;;-145.94;70.84;76445.53;5094270;28;20209;-69
2023/07/10 06:24:14;;;;;;;9.50;8.77;;;;;;;-145.94;70.54;76439.41;5094257;28;20194;-69
2023/07/10 06:26:40;;;;;;;10.27;9.33;;;;;;;-145.94;70.16;76451.66;5094264;28;20182;-69
2023/07/10 06:29:07;;;;;;;8.80;8.20;;;;;;;-145.94;69.47;76457.78;5094363;28;20208;-69
2023/07/10 06:31:33;;;;;;;10.63;9.10;;;;;;;-145.94;70.05;76451.66;5094135;28;20214;-70
2023/07/10 06:34:00;;;;;;;11.47;8.33;;;;;;;-145.94;70.48;76453.69;5094381;28;20196;-70
2023/07/10 06:36:26;;;;;;;9.90;9.10;;;;;;;-145.94;69.74;76451.66;5094242;28;20231;-70
2023/07/10 06:38:52;;;;;;;7.93;7.53;;;;;;;-145.94;69.63;76457.78;5094353;28;20337;-69
2023/07/10 06:41:19;;;;;;;16.27;7.90;;;;;;;-145.94;69.77;76455.72;5093901;28;20213;-70
2023/07/10 06:43:45;;;;;;;9.10;8.40;;;;;;;-145.94;69.76;76447.56;5094208;28;20586;-70
2023/07/10 06:46:12;;;;;;;10.30;8.90;;;;;;;-145.94;69.67;76443.50;5094300;28;20648;-70
2023/07/10 06:48:39;;;;;;;10.60;9.67;;;;;;;-145.94;70.32;76441.47;5093831;28;20182;-69
2023/07/10 06:51:05;;;;;;;10.50;9.33;;;;;;;-145.94;70.65;76433.31;5094192;28;20214;-70
2023/07/10 06:53:32;;;;;;;10.87;9.80;;;;;;;-145.94;71.44;76433.31;5094080;28;20247;-70
2023/07/10 06:56:00;;;;;;;14.00;10.93;;;;;;;-145.94;71.85;76429.22;5093718;28;20206;-69
2023/07/10 06:58:29;;;;;;;15.30;12.90;;;;;;;-145.94;72.14;76425.16;5094239;28;20243;-69
2023/07/10 07:00:56;;;;;;;12.27;11.40;;;;;;;-145.94;72.16;76427.19;5094060;28;20270;-70
2023/07/10 07:03:23;;;;;;;11.70;10.50;;;;;;;-145.94;71.57;76431.28;5093670;28;20579;-70
2023/07/10 07:05:50;;;;;;;10.53;9.77;;;;;;;-145.94;70.07;76435.34;5093603;28;20186;-68
2023/07/10 07:08:19;;;;;;;10.53;9.20;;;;;;;-145.94;69.98;76425.16;5093581;28;20652;-68
2023/07/10 07:10:46;;;;;;;9.20;8.50;;;;;;;-145.94;69.70;76421.06;5093429;28;20231;-69
2023/07/10 07:13:13;;;;;;;8.90;8.17;;;;;;;-145.94;68.19;76429.22;5093538;28;20186;-68
2023/07/10 07:15:40;;;;;;;7.83;6.80;;;;;;;-145.94;66.61;76439.41;5093470;28;20201;-69
2023/07/10 07:18:06;;;;;;;7.10;6.00;;;;;;;-145.94;65.71;76437.38;5093430;28;20190;-68
2023/07/10 07:20:33;;;;;;;16.60;4.87;;;;;;;-145.94;63.85;76435.34;5093386;28;20178;-70
2023/07/10 07:23:00;;;;;;;8.30;3.40;;;;;;;-145.94;62.12;76443.50;5093925;28;20194;-69
2023/07/10 07:25:30;;;;;;;3.60;3.40;;;;;;;-145.94;61.65;76447.56;5093679;28;20185;-69
2023/07/10 07:28:03;;;;;;;4.23;4.03;;;;;;;-145.94;61.95;76451.66;5093616;28;20227;-69
2023/07/10 07:30:31;;;;;;;3.80;3.60;;;;;;;-145.94;60.41;76467.97;5093298;28;20243;-70
2023/07/10 07:32:58;;;;;;;6.43;3.20;;;;;;;-145.94;59.00;76470.00;5093787;28;20186;-68
2023/07/10 07:35:24;;;;;;;3.07;3.07;;;;;;;-145.94;59.47;76467.97;5093230;28;20186;-69
2023/07/10 07:37:51;;;;;;;3.77;3.53;;;;;;;-145.94;59.24;76459.81;5093247;28;20182;-69
2023/07/10 07:40:17;;;;;;;3.73;3.47;;;;;;;-145.94;60.17;76453.69;5093739;28;20190;-69
2023/07/10 07:42:45;;;;;;;14.47;3.87;;;;;;;-145.94;61.29;76451.66;5093181;28;20296;-68
2023/07/10 07:45:12;;;;;;;4.50;4.17;;;;;;;-145.94;60.61;76447.56;5093192;28;20219;-68
2023/07/10 07:47:40;;;;;;;4.23;4.00;;;;;;;-145.94;60.77;76455.72;5093399;28;20644;-68
2023/07/10 07:50:08;;;;;;;3.50;3.30;;;;;;;-145.94;61.84;76449.63;5093351;28;20208;-68
2023/07/10 07:52:35;;;;;;;4.23;3.80;;;;;;;-145.94;60.37;76449.63;5093021;28;20258;-68
2023/07/10 07:55:03;;;;;;;4.53;4.03;;;;;;;-145.94;61.07;76443.50;5093671;28;20179;-68
2023/07/10 07:57:29;;;;;;;4.47;4.27;;;;;;;-145.94;61.56;76417.00;5093275;28;20236;-68
2023/07/10 07:59:55;;;;;;;5.70;3.60;;;;;;;-145.94;59.55;76431.28;5093548;28;20344;-68
2023/07/10 08:02:22;;;;;;;5.50;3.67;;;;;;;-145.94;58.95;76427.19;5092997;28;20206;-69
2023/07/10 08:04:48;;;;;;;3.80;3.50;;;;;;;-145.94;59.84;76427.19;5093023;28;20186;-69
2023/07/10 08:07:15;;;;;;;3.30;3.20;;;;;;;-145.94;59.88;76406.81;5093023;28;20527;-69
2023/07/10 08:09:41;;;;;;;3.70;3.50;;;;;;;-145.94;59.53;76400.69;5093252;28;20197;-69
2023/07/10 08:12:08;;;;;;;5.13;3.70;;;;;;;-145.94;60.65;76390.50;5093200;28;20201;-69
2023/07/10 08:14:36;;;;;;;7.27;3.97;;;;;;;-145.94;59.26;76390.50;5096457;28;20717;-69
2023/07/10 08:17:02;;;;;;;3.87;3.57;;;;;;;-145.94;60.32;76390.50;5096715;28;20259;-68
2023/07/10 08:19:29;;;;;;;5.07;4.73;;;;;;;-145.94;59.80;76392.53;5096696;28;20527;-69
2023/07/10 08:21:57;;;;;;;4.27;4.17;;;;;;;-145.94;60.85;76380.28;5097193;28;20205;-68
2023/07/10 08:24:26;;;;;;;3.70;3.60;;;;;;;-145.94;60.54;76372.13;5096948;28;20543;-69
2023/07/10 08:26:53;;;;;;;4.40;4.30;;;;;;;-145.94;60.76;76368.06;5096867;28;20552;-69
2023/07/10 08:29:27;;;;;;;4.37;3.93;;;;;;;-145.94;60.80;76353.78;5096464;28;20220;-69
2023/07/10 08:31:56;;;;;;;4.63;3.93;;;;;;;-145.94;58.96;76341.56;5096496;28;20212;-69
2023/07/10 08:34:24;;;;;;;6.47;3.67;;;;;;;-145.94;58.34;76339.50;5096720;28;20251;-68
2023/07/10 08:36:52;;;;;;;7.63;3.83;;;;;;;-145.94;59.77;76333.41;5097047;28;20205;-69
2023/07/10 08:39:20;;;;;;;3.73;3.43;;;;;;;-145.94;57.44;76331.34;5096355;28;20189;-69
2023/07/10 08:41:54;;;;;;;3.43;3.30;;;;;;;-145.94;57.12;76329.31;5096242;28;20212;-68
2023/07/10 08:44:27;;;;;;;4.20;4.00;;;;;;;-145.94;57.20;76319.13;5096552;28;20575;-68
2023/07/10 08:46:54;;;;;;;3.03;2.93;;;;;;;-145.94;58.38;76310.97;5096826;28;20220;-69
2023/07/10 08:49:37;;;;;;;3.03;3.00;;;;;;;-145.94;57.19;76286.50;5096720;28;20225;-68
2023/07/10 08:52:10;;;;;;;3.37;3.23;;;;;;;-145.94;56.31;76284.47;5096430;28;20210;-69
2023/07/10 08:54:36;;;;;;;1.97;1.97;;;;;;;-145.94;54.59;76292.63;5096668;28;20227;-69
2023/07/10 08:57:20;;;;;;;2.20;2.10;;;;;;;-145.94;55.45;76284.47;5095922;28;20201;-68
2023/07/10 08:59:56;;;;;;;2.17;2.03;;;;;;;-145.94;54.52;76268.16;5095943;28;20231;-68
2023/07/10 09:02:43;;;;;;;1.90;1.90;;;;;;;-145.94;52.64;76270.19;5096416;28;20256;-68
2023/07/10 09:05:37;;;;;;;10.37;2.03;;;;;;;-145.94;53.61;76257.97;5096175;28;20174;-67
2023/07/10 09:08:09;;;;;;;3.13;2.33;;;;;;;-145.94;52.55;76251.84;5092756;28;20206;-67
2023/07/10 09:10:43;;;;;;;2.27;2.13;;;;;;;-145.94;51.69;76245.72;5095995;28;20223;-69
2023/07/10 09:13:26;;;;;;;2.97;2.10;;;;;;;-145.94;53.41;76233.50;5095974;28;20170;-69
2023/07/10 09:15:56;;;;;;;2.27;2.10;;;;;;;-145.94;53.34;76225.34;5095844;28;20292;-68
2023/07/10 09:18:48;;;;;;;2.00;2.00;;;;;;;-145.94;51.82;76219.22;5095849;28;20525;-68
2023/07/10 09:21:20;;;;;;;2.33;1.50;;;;;;;-145.94;50.82;76225.34;5095570;28;20684;-68
2023/07/10 09:23:47;;;;;;;6.00;1.90;;;;;;;-145.94;53.23;76213.09;5095480;28;20192;-68
2023/07/10 09:26:18;;;;;;;2.43;1.90;;;;;;;-145.94;51.28;76215.13;5095478;28;20186;-68
2023/07/10 09:28:59;;;;;;;4.30;2.13;;;;;;;-145.94;52.03;76207.00;5095444;28;20228;-68
2023/07/10 09:31:37;;;;;;;2.00;1.97;;;;;;;-145.94;53.25;76194.75;5095577;28;20202;-69
2023/07/10 09:34:03;;;;;;;8.47;2.27;;;;;;;-145.94;53.37;76186.59;5096172;28;20182;-67
2023/07/10 09:36:30;;;;;;;1.93;1.83;;;;;;;-145.94;50.24;76190.69;5095259;28;20270;-67
2023/07/10 09:38:57;;;;;;;5.97;2.30;;;;;;;-145.94;50.16;76186.59;5096043;28;20520;-67
2023/07/10 09:41:27;;;;;;;2.53;1.97;;;;;;;-145.94;51.84;76170.28;5095187;28;20255;-68
2023/07/10 09:43:56;;;;;;;3.50;2.27;;;;;;;-145.94;50.03;76153.97;5095055;28;20257;-67
2023/07/10 09:46:27;;;;;;;3.10;2.47;;;;;;;-145.94;49.83;76141.75;5095016;28;20182;-67
2023/07/10 09:48:55;;;;;;;8.13;2.23;;;;;;;-145.94;49.49;76129.50;5095055;28;20521;-68
2023/07/10 09:51:22;;;;;;;1.87;1.87;;;;;;;-145.94;48.50;76141.75;5094867;28;20206;-68
2023/07/10 09:53:52;;;;;;;1.73;1.73;;;;;;;-145.94;50.66;76131.56;5094840;28;20193;-68
2023/07/10 09:56:22;;;;;;;9.93;1.90;;;;;;;-145.94;49.64;76133.59;5094769;28;20562;-67
2023/07/10 09:58:53;;;;;;;4.53;2.70;;;;;;;-145.94;49.69;76115.25;5095346;28;20178;-67
2023/07/10 10:01:30;;;;;;;3.03;2.70;;;;;;;-145.94;47.64;76096.88;5094767;28;20210;-68
2023/07/10 10:03:59;;;;;;;3.43;3.13;;;;;;;-145.94;47.08;76092.81;5095098;28;20256;-68
2023/07/10 10:06:29;;;;;;;2.23;2.03;;;;;;;-145.94;47.24;76084.66;5094856;28;20653;-67
2023/07/10 10:08:56;;;;;;;5.67;2.17;;;;;;;-145.94;47.46;76072.44;5095719;28;20570;-68
2023/07/10 10:11:44;;;;;;;3.57;2.70;;;;;;;-145.94;45.75;76088.72;5094522;28;20259;-68
2023/07/10 10:14:17;;;;;;;4.83;2.40;;;;;;;-145.94;46.56;76086.69;5094875;28;20178;-68
2023/07/10 10:16:49;;;;;;;3.33;3.23;;;;;;;-145.94;46.12;76074.47;5094779;28;20611;-68
2023/07/10 10:19:30;;;;;;;2.53;2.43;;;;;;;-145.94;46.03;76074.47;5094506;28;20178;-68
2023/07/10 10:21:56;;;;;;;2.23;2.20;;;;;;;-145.94;46.41;76060.19;5094932;28;20243;-69
2023/07/10 10:24:25;;;;;;;2.17;2.07;;;;;;;-145.94;45.21;76058.16;5094450;28;20204;-68
2023/07/10 10:27:27;;;;;;;2.53;2.53;;;;;;;-145.94;45.24;76054.06;5094556;28;20660;-67
2023/07/10 10:30:23;;;;;;;3.53;2.30;;;;;;;-145.94;44.46;76060.19;5094478;28;20251;-67
2023/07/10 10:33:24;;;;;;;2.53;2.33;;;;;;;-145.94;45.05;76029.59;5094650;28;20210;-68
2023/07/10 10:36:00;;;;;;;5.40;2.00;;;;;;;-145.94;43.33;76029.59;5093993;28;20162;-67
2023/07/10 10:38:39;;;;;;;1.67;1.67;;;;;;;-145.94;44.20;76027.56;5094389;28;20689;-68
2023/07/10 10:41:12;;;;;;;5.87;2.63;;;;;;;-145.94;43.04;76029.59;5094271;28;20259;-68
2023/07/10 10:43:53;;;;;;;2.25;1.98;;;;;;;-145.94;44.07;76027.56;5094535;28;20556;-67
2023/07/10 10:46:32;;;;;;;2.03;1.93;;;;;;;-145.94;44.62;76017.38;5094026;28;20303;-68
2023/07/10 10:49:20;;;;;;;2.40;2.30;;;;;;;-145.94;44.27;76015.34;5093926;28;20189;-68
2023/07/10 10:51:58;;;;;;;4.03;2.10;;;;;;;-145.94;44.07;75997.00;5094379;28;20210;-68
2023/07/10 10:54:42;;;;;;;2.85;1.90;;;;;;;-145.94;43.82;75988.84;5094443;28;20178;-67
2023/07/10 10:57:46;;;;;;;4.78;2.22;;;;;;;-145.94;42.77;75962.34;5094035;28;20186;-68
2023/07/10 11:00:33;;;;;;;5.45;2.08;;;;;;;-145.94;41.61;75964.38;5094003;28;20181;-68
2023/07/10 11:03:02;;;;;;;1.80;1.77;;;;;;;-145.94;43.17;75960.28;5093974;28;20189;-69
2023/07/10 11:05:36;;;;;;;2.67;2.47;;;;;;;-145.94;42.70;75966.41;5094225;28;20214;-67
2023/07/10 11:08:10;;;;;;;2.25;2.00;;;;;;;-145.94;44.07;75948.06;5093928;28;20223;-67
2023/07/10 11:10:40;;;;;;;3.13;2.08;;;;;;;-145.94;41.76;75941.94;5093761;28;20593;-68
2023/07/10 11:13:29;;;;;;;1.88;1.77;;;;;;;-145.94;41.34;75952.13;5093528;28;20178;-67
2023/07/10 11:15:56;;;;;;;3.78;1.52;;;;;;;-145.94;42.88;75923.59;5094131;28;20178;-67
2023/07/10 11:18:24;;;;;;;1.98;1.77;;;;;;;-145.94;42.84;75927.66;5093390;28;20571;-69